createdAt,value
2023-05-05T00:02:00.810Z,44.71
2023-05-05T00:04:27.222Z,44.10
2023-05-05T00:06:53.546Z,43.76
2023-05-05T00:09:19.819Z,44.06
2023-05-05T00:11:46.121Z,43.51
2023-05-05T00:14:12.514Z,43.70
2023-05-05T00:16:38.862Z,43.90
2023-05-05T00:19:05.505Z,44.18
2023-05-05T00:21:31.765Z,44.90
2023-05-05T00:23:58.064Z,45.03
2023-05-05T00:26:24.395Z,45.77
2023-05-05T00:28:52.014Z,46.06
2023-05-05T00:31:18.351Z,46.52
2023-05-05T00:33:44.692Z,47.04
2023-05-05T00:36:10.992Z,46.04
2023-05-05T00:38:38.011Z,45.79
2023-05-05T00:41:04.318Z,44.86
2023-05-05T00:43:30.634Z,45.26
2023-05-05T00:46:01.811Z,45.92
2023-05-05T00:48:31.113Z,46.16
2023-05-05T00:50:57.449Z,46.36
2023-05-05T00:53:23.744Z,45.77
2023-05-05T00:55:51.082Z,46.28
2023-05-05T00:58:17.374Z,46.15
2023-05-05T01:00:44.354Z,46.96
2023-05-05T01:03:12.827Z,47.35
2023-05-05T01:05:51.389Z,46.82
2023-05-05T01:08:37.925Z,46.93
2023-05-05T01:11:09.932Z,46.93
2023-05-05T01:13:42.622Z,47.43
2023-05-05T01:16:16.784Z,47.72
2023-05-05T01:19:01.929Z,47.99
2023-05-05T01:21:32.587Z,47.43
2023-05-05T01:24:17.737Z,47.47
2023-05-05T01:26:56.212Z,48.03
2023-05-05T01:29:40.999Z,48.14
2023-05-05T01:32:14.212Z,47.94
2023-05-05T01:34:41.994Z,47.89
2023-05-05T01:37:10.305Z,48.37
2023-05-05T01:39:36.578Z,48.36
2023-05-05T01:42:04.834Z,48.52
2023-05-05T01:44:31.222Z,48.67
2023-05-05T01:46:57.506Z,48.56
2023-05-05T01:49:23.885Z,48.77
2023-05-05T01:51:50.176Z,48.64
2023-05-05T01:54:16.516Z,47.78
2023-05-05T01:56:42.805Z,47.66
2023-05-05T01:59:09.862Z,48.16
2023-05-05T02:01:37.430Z,47.92
2023-05-05T02:04:03.726Z,48.18
2023-05-05T02:06:32.296Z,48.52
2023-05-05T02:08:58.594Z,48.49
2023-05-05T02:11:25.040Z,48.93
2023-05-05T02:13:51.391Z,48.61
2023-05-05T02:16:17.806Z,48.72
2023-05-05T02:18:44.189Z,48.04
2023-05-05T02:21:10.623Z,49.00
2023-05-05T02:23:36.930Z,48.97
2023-05-05T02:26:04.877Z,49.13
2023-05-05T02:28:42.050Z,49.51
2023-05-05T02:31:08.684Z,49.38
2023-05-05T02:33:35.104Z,49.93
2023-05-05T02:36:10.384Z,49.35
2023-05-05T02:38:37.113Z,48.83
2023-05-05T02:41:03.765Z,48.81
2023-05-05T02:43:30.434Z,49.20
2023-05-05T02:45:56.795Z,50.17
2023-05-05T02:48:23.157Z,51.43
2023-05-05T02:50:49.464Z,51.67
2023-05-05T02:53:15.862Z,51.84
2023-05-05T02:56:01.689Z,51.04
2023-05-05T02:58:38.461Z,50.00
2023-05-05T03:01:04.763Z,50.06
2023-05-05T03:03:34.612Z,50.30
2023-05-05T03:06:02.711Z,50.26
2023-05-05T03:08:45.833Z,50.24
2023-05-05T03:11:14.817Z,50.76
2023-05-05T03:13:42.770Z,50.74
2023-05-05T03:16:09.372Z,50.97
2023-05-05T03:18:35.745Z,51.24
2023-05-05T03:21:08.339Z,51.52
2023-05-05T03:23:34.946Z,51.46
2023-05-05T03:26:01.245Z,51.59
2023-05-05T03:28:27.575Z,51.75
2023-05-05T03:30:53.846Z,51.98
2023-05-05T03:33:20.146Z,51.42
2023-05-05T03:35:46.426Z,51.22
2023-05-05T03:38:12.706Z,51.17
2023-05-05T03:40:44.165Z,51.10
2023-05-05T03:43:11.195Z,51.50
2023-05-05T03:45:37.546Z,51.35
2023-05-05T03:48:04.076Z,51.68
2023-05-05T03:50:30.847Z,51.43
2023-05-05T03:52:57.124Z,51.95
2023-05-05T03:55:24.439Z,51.86
2023-05-05T03:57:50.728Z,51.62
2023-05-05T04:00:17.134Z,51.71
2023-05-05T04:02:43.538Z,51.35
2023-05-05T04:05:09.982Z,51.41
2023-05-05T04:07:36.273Z,50.39
2023-05-05T04:10:02.633Z,50.11
2023-05-05T04:12:28.905Z,50.07
2023-05-05T04:14:55.204Z,50.24
2023-05-05T04:17:21.522Z,49.80
2023-05-05T04:19:47.857Z,50.02
2023-05-05T04:22:14.149Z,50.04
2023-05-05T04:24:40.768Z,50.45
2023-05-05T04:27:07.085Z,51.45
2023-05-05T04:29:33.364Z,51.32
2023-05-05T04:31:59.657Z,51.25
2023-05-05T04:34:26.048Z,51.78
2023-05-05T04:36:52.379Z,51.07
2023-05-05T04:39:18.966Z,50.97
2023-05-05T04:41:45.260Z,50.11
2023-05-05T04:44:11.559Z,50.20
2023-05-05T04:46:37.913Z,50.36
2023-05-05T04:49:05.720Z,50.45
2023-05-05T04:51:32.234Z,50.36
2023-05-05T04:53:58.518Z,50.36
2023-05-05T04:56:25.070Z,51.21
2023-05-05T04:58:51.385Z,51.53
2023-05-05T05:01:17.665Z,51.69
2023-05-05T05:03:44.086Z,51.72
2023-05-05T05:06:10.472Z,51.37
2023-05-05T05:08:36.782Z,50.53
2023-05-05T05:11:03.083Z,50.95
2023-05-05T05:13:29.358Z,51.37
2023-05-05T05:15:55.677Z,51.54
2023-05-05T05:18:21.956Z,51.13
2023-05-05T05:20:48.238Z,50.25
2023-05-05T05:23:14.528Z,49.61
2023-05-05T05:25:40.882Z,49.15
2023-05-05T05:28:10.526Z,49.46
2023-05-05T05:30:37.168Z,48.76
2023-05-05T05:33:03.548Z,48.76
2023-05-05T05:35:29.876Z,48.03
2023-05-05T05:37:56.224Z,47.49
2023-05-05T05:40:22.549Z,46.55
2023-05-05T05:42:48.850Z,46.39
2023-05-05T05:45:15.145Z,43.69
2023-05-05T05:47:41.549Z,43.29
2023-05-05T05:50:08.278Z,42.31
2023-05-05T05:52:36.082Z,41.42
2023-05-05T05:55:02.378Z,40.98
2023-05-05T05:57:28.682Z,40.27
2023-05-05T05:59:55.060Z,39.29
2023-05-05T06:02:21.528Z,40.17
2023-05-05T06:04:47.942Z,40.75
2023-05-05T06:07:14.334Z,40.95
2023-05-05T06:09:41.358Z,38.48
2023-05-05T06:12:07.679Z,38.91
2023-05-05T06:14:34.036Z,39.63
2023-05-05T06:17:00.326Z,39.15
2023-05-05T06:19:26.605Z,39.36
2023-05-05T06:21:52.900Z,38.91
2023-05-05T06:24:19.199Z,37.84
2023-05-05T06:26:45.503Z,37.48
2023-05-05T06:29:12.354Z,35.99
2023-05-05T06:31:38.911Z,36.26
2023-05-05T06:34:05.230Z,36.25
2023-05-05T06:36:32.216Z,36.65
2023-05-05T06:38:58.528Z,37.45
2023-05-05T06:41:24.798Z,39.42
2023-05-05T06:43:51.069Z,39.13
2023-05-05T06:46:17.527Z,40.56
2023-05-05T06:48:44.013Z,38.54
2023-05-05T06:51:10.299Z,40.12
2023-05-05T06:53:36.601Z,40.72
2023-05-05T06:56:02.884Z,39.68
2023-05-05T06:58:29.212Z,41.44
2023-05-05T07:00:55.583Z,41.05
2023-05-05T07:03:21.984Z,40.58
2023-05-05T07:05:48.373Z,40.93
2023-05-05T07:08:14.679Z,39.46
2023-05-05T07:10:41.721Z,40.38
2023-05-05T07:13:08.328Z,41.70
2023-05-05T07:15:34.858Z,42.08
2023-05-05T07:18:01.239Z,42.69
2023-05-05T07:20:27.693Z,42.69
2023-05-05T07:22:54.101Z,42.51
2023-05-05T07:25:20.747Z,44.66
2023-05-05T07:27:47.070Z,42.62
2023-05-05T07:30:17.232Z,43.70
2023-05-05T07:32:44.589Z,43.12
2023-05-05T07:35:11.260Z,42.45
2023-05-05T07:37:37.571Z,43.46
2023-05-05T07:40:03.974Z,46.89
2023-05-05T07:42:30.289Z,42.86
2023-05-05T07:44:56.574Z,41.62
2023-05-05T07:47:22.916Z,42.25
2023-05-05T07:49:49.298Z,43.46
2023-05-05T07:52:15.609Z,42.62
2023-05-05T07:54:42.384Z,46.38
2023-05-05T07:57:08.713Z,43.46
2023-05-05T07:59:35.145Z,42.91
2023-05-05T08:02:01.473Z,43.13
2023-05-05T08:04:27.877Z,43.27
2023-05-05T08:06:54.246Z,44.38
2023-05-05T08:09:20.540Z,43.61
2023-05-05T08:11:46.852Z,42.48
2023-05-05T08:14:13.143Z,44.00
2023-05-05T08:16:39.430Z,43.56
2023-05-05T08:19:14.626Z,44.72
2023-05-05T08:21:47.793Z,44.68
2023-05-05T08:24:14.097Z,43.45
2023-05-05T08:26:40.402Z,43.79
2023-05-05T08:29:06.703Z,45.30
2023-05-05T08:31:33.271Z,42.29
2023-05-05T08:33:59.571Z,43.29
2023-05-05T08:36:27.147Z,43.28
2023-05-05T08:38:53.450Z,42.33
2023-05-05T08:41:19.850Z,43.19
2023-05-05T08:43:46.354Z,43.67
2023-05-05T08:46:12.719Z,43.00
2023-05-05T08:48:39.358Z,40.44
2023-05-05T08:51:05.788Z,42.03
2023-05-05T08:53:45.725Z,44.36
2023-05-05T08:56:12.822Z,43.15
2023-05-05T08:58:39.120Z,43.08
2023-05-05T09:01:05.482Z,42.58
2023-05-05T09:03:31.861Z,45.11
2023-05-05T09:05:58.171Z,42.48
2023-05-05T09:08:24.457Z,41.86
2023-05-05T09:10:51.008Z,42.11
2023-05-05T09:13:17.421Z,42.70
2023-05-05T09:15:43.787Z,41.55
2023-05-05T09:18:12.031Z,41.01
2023-05-05T09:20:38.599Z,40.89
2023-05-05T09:23:10.527Z,43.77
2023-05-05T09:25:36.845Z,42.87
2023-05-05T09:28:15.675Z,42.32
2023-05-05T09:30:43.189Z,43.55
2023-05-05T09:33:09.651Z,40.53
2023-05-05T09:35:49.257Z,40.42
2023-05-05T09:38:15.654Z,39.99
2023-05-05T09:40:51.736Z,40.00
2023-05-05T09:43:18.746Z,40.03
2023-05-05T09:45:45.116Z,40.48
2023-05-05T09:48:23.860Z,40.09
2023-05-05T09:50:50.208Z,38.50
2023-05-05T09:53:16.584Z,39.21
2023-05-05T09:55:51.900Z,40.45
2023-05-05T09:58:19.236Z,41.15
2023-05-05T10:00:46.406Z,39.53
2023-05-05T10:03:12.811Z,39.34
2023-05-05T10:05:52.038Z,38.64
2023-05-05T10:08:19.093Z,41.70
2023-05-05T10:10:46.420Z,40.61
2023-05-05T10:13:12.878Z,38.33
2023-05-05T10:15:39.379Z,39.24
2023-05-05T10:18:07.834Z,38.66
2023-05-05T10:20:36.138Z,39.30
2023-05-05T10:23:02.659Z,39.31
2023-05-05T10:25:30.496Z,38.94
2023-05-05T10:27:58.764Z,40.31
2023-05-05T10:30:33.997Z,38.86
2023-05-05T10:33:14.121Z,38.35
2023-05-05T10:35:47.217Z,38.66
2023-05-05T10:38:13.493Z,39.05
2023-05-05T10:40:43.243Z,39.48
2023-05-05T10:43:09.571Z,38.63
2023-05-05T10:45:36.538Z,38.66
2023-05-05T10:48:03.985Z,39.02
2023-05-05T10:50:36.528Z,37.51
2023-05-05T10:53:18.092Z,37.26
2023-05-05T10:55:46.079Z,38.44
2023-05-05T10:58:31.111Z,38.02
2023-05-05T11:00:57.456Z,38.74
2023-05-05T11:03:24.092Z,39.06
2023-05-05T11:06:08.571Z,38.58
2023-05-05T11:08:35.465Z,38.18
2023-05-05T11:11:01.917Z,37.98
2023-05-05T11:13:28.252Z,38.47
2023-05-05T11:15:54.944Z,38.67
2023-05-05T11:18:35.599Z,37.34
2023-05-05T11:21:01.971Z,36.40
2023-05-05T11:23:28.535Z,37.15
2023-05-05T11:25:55.116Z,37.23
2023-05-05T11:28:23.192Z,36.53
2023-05-05T11:30:59.015Z,35.80
2023-05-05T11:33:38.616Z,36.19
2023-05-05T11:36:06.957Z,36.30
2023-05-05T11:38:42.881Z,35.40
2023-05-05T11:41:13.803Z,34.84
2023-05-05T11:43:40.137Z,35.22
2023-05-05T11:46:10.739Z,35.53
2023-05-05T11:48:49.596Z,35.88
2023-05-05T11:51:16.295Z,36.40
2023-05-05T11:53:43.762Z,37.68
2023-05-05T11:56:10.277Z,35.61
2023-05-05T11:58:36.673Z,33.20
2023-05-05T12:01:06.603Z,33.74
2023-05-05T12:03:36.516Z,34.34
2023-05-05T12:06:03.488Z,34.31
2023-05-05T12:08:35.340Z,32.80
2023-05-05T12:11:02.217Z,33.03
2023-05-05T12:13:29.853Z,33.94
2023-05-05T12:15:56.322Z,34.47
2023-05-05T12:18:22.630Z,34.78
2023-05-05T12:20:48.931Z,35.13
2023-05-05T12:23:15.494Z,34.41
2023-05-05T12:25:41.998Z,33.37
2023-05-05T12:28:08.427Z,34.89
2023-05-05T12:30:34.737Z,34.55
2023-05-05T12:33:04.697Z,33.59
2023-05-05T12:35:31.317Z,35.01
2023-05-05T12:37:58.385Z,35.88
2023-05-05T12:40:43.850Z,36.57
2023-05-05T12:43:10.847Z,35.32
2023-05-05T12:45:37.206Z,33.12
2023-05-05T12:48:20.895Z,33.60
2023-05-05T12:50:47.196Z,35.01
2023-05-05T12:53:20.290Z,35.71
2023-05-05T12:55:46.592Z,34.82
2023-05-05T12:58:12.874Z,35.01
2023-05-05T13:00:39.145Z,34.24
2023-05-05T13:03:06.201Z,34.73
2023-05-05T13:05:33.156Z,34.77
2023-05-05T13:07:59.653Z,35.11
2023-05-05T13:10:26.925Z,32.89
2023-05-05T13:12:56.736Z,34.86
2023-05-05T13:15:23.649Z,33.39
2023-05-05T13:17:49.983Z,34.86
2023-05-05T13:20:16.399Z,35.53
2023-05-05T13:22:42.685Z,35.55
2023-05-05T13:25:09.187Z,35.79
2023-05-05T13:27:37.677Z,36.92
2023-05-05T13:30:04.300Z,37.26
2023-05-05T13:32:30.669Z,39.97
2023-05-05T13:34:57.834Z,42.43
2023-05-05T13:37:24.230Z,43.51
2023-05-05T13:39:51.276Z,43.21
2023-05-05T13:42:17.580Z,43.13
2023-05-05T13:44:43.911Z,41.68
2023-05-05T13:47:10.259Z,41.13
2023-05-05T13:49:36.676Z,40.35
2023-05-05T13:52:02.973Z,40.66
2023-05-05T13:54:29.244Z,41.12
2023-05-05T13:56:55.580Z,42.15
2023-05-05T13:59:21.895Z,40.12
2023-05-05T14:01:48.184Z,39.60
2023-05-05T14:04:14.548Z,39.84
2023-05-05T14:06:40.884Z,39.27
2023-05-05T14:09:07.930Z,38.34
2023-05-05T14:11:34.319Z,38.44
2023-05-05T14:14:00.658Z,35.60
2023-05-05T14:16:26.977Z,37.29
2023-05-05T14:18:53.313Z,36.21
2023-05-05T14:21:19.641Z,36.84
2023-05-05T14:23:45.988Z,35.50
2023-05-05T14:26:12.284Z,34.85
2023-05-05T14:28:38.604Z,36.20
2023-05-05T14:31:05.007Z,35.71
2023-05-05T14:33:31.330Z,32.75
2023-05-05T14:35:57.629Z,33.68
2023-05-05T14:38:23.951Z,32.05
2023-05-05T14:40:50.269Z,33.07
2023-05-05T14:43:16.601Z,33.68
2023-05-05T14:45:44.117Z,34.87
2023-05-05T14:48:10.566Z,35.49
2023-05-05T14:50:36.884Z,35.98
2023-05-05T14:53:03.260Z,36.82
2023-05-05T14:55:29.562Z,37.21
2023-05-05T14:57:55.851Z,38.03
2023-05-05T15:00:22.145Z,37.82
2023-05-05T15:02:48.628Z,38.32
2023-05-05T15:05:15.059Z,38.90
2023-05-05T15:07:41.352Z,38.53
2023-05-05T15:10:07.865Z,39.62
2023-05-05T15:12:34.304Z,38.84
2023-05-05T15:15:00.698Z,39.49
2023-05-05T15:17:27.018Z,38.44
2023-05-05T15:19:53.474Z,39.01
2023-05-05T15:22:19.759Z,40.02
2023-05-05T15:24:46.244Z,40.29
2023-05-05T15:27:12.553Z,38.85
2023-05-05T15:29:38.891Z,37.91
2023-05-05T15:32:05.550Z,39.04
2023-05-05T15:34:31.958Z,40.00
2023-05-05T15:36:58.227Z,39.74
2023-05-05T15:39:24.528Z,40.62
2023-05-05T15:41:50.860Z,39.96
2023-05-05T15:44:17.147Z,40.52
2023-05-05T15:46:43.612Z,39.32
2023-05-05T15:49:09.954Z,36.47
2023-05-05T15:51:36.273Z,37.96
2023-05-05T15:54:02.556Z,35.52
2023-05-05T15:56:29.294Z,32.82
2023-05-05T15:58:56.636Z,31.86
2023-05-05T16:01:23.030Z,33.07
2023-05-05T16:03:49.333Z,32.39
2023-05-05T16:06:15.637Z,32.18
2023-05-05T16:08:42.107Z,31.27
2023-05-05T16:11:08.397Z,33.16
2023-05-05T16:13:34.709Z,32.70
2023-05-05T16:16:01.354Z,35.75
2023-05-05T16:18:27.677Z,31.98
2023-05-05T16:20:53.945Z,32.48
2023-05-05T16:23:20.216Z,32.93
2023-05-05T16:25:46.514Z,32.42
2023-05-05T16:28:12.806Z,31.74
2023-05-05T16:30:39.857Z,31.95
2023-05-05T16:33:06.814Z,34.13
2023-05-05T16:35:33.201Z,36.03
2023-05-05T16:37:59.582Z,38.10
2023-05-05T16:40:25.871Z,38.66
2023-05-05T16:42:52.178Z,38.82
2023-05-05T16:45:18.501Z,38.38
2023-05-05T16:47:44.825Z,38.32
2023-05-05T16:50:11.277Z,37.17
2023-05-05T16:52:37.547Z,36.98
2023-05-05T16:55:04.757Z,37.71
2023-05-05T16:57:31.367Z,35.20
2023-05-05T16:59:57.766Z,34.86
2023-05-05T17:02:24.171Z,35.12
2023-05-05T17:04:50.710Z,36.53
2023-05-05T17:07:17.040Z,32.39
2023-05-05T17:09:43.342Z,33.55
2023-05-05T17:12:09.674Z,33.19
2023-05-05T17:14:35.987Z,32.69
2023-05-05T17:17:02.304Z,33.35
2023-05-05T17:19:28.642Z,32.97
2023-05-05T17:21:55.132Z,33.79
2023-05-05T17:24:21.517Z,36.96
2023-05-05T17:26:47.850Z,37.67
2023-05-05T17:29:15.156Z,38.30
2023-05-05T17:31:41.940Z,37.56
2023-05-05T17:34:08.278Z,37.64
2023-05-05T17:36:35.392Z,38.68
2023-05-05T17:39:01.703Z,39.26
2023-05-05T17:41:27.964Z,39.02
2023-05-05T17:43:54.282Z,39.01
2023-05-05T17:46:20.756Z,38.92
2023-05-05T17:48:47.262Z,40.21
2023-05-05T17:51:13.570Z,40.35
2023-05-05T17:53:39.911Z,39.68
2023-05-05T17:56:08.565Z,39.73
2023-05-05T17:58:35.285Z,39.20
2023-05-05T18:01:01.643Z,39.03
2023-05-05T18:03:28.256Z,39.66
2023-05-05T18:05:54.774Z,39.75
2023-05-05T18:08:21.080Z,39.72
2023-05-05T18:10:47.441Z,40.27
2023-05-05T18:13:13.857Z,40.57
2023-05-05T18:15:40.294Z,40.08
2023-05-05T18:18:07.050Z,40.47
2023-05-05T18:20:33.455Z,39.96
2023-05-05T18:22:59.745Z,39.73
2023-05-05T18:25:26.151Z,41.16
2023-05-05T18:27:52.458Z,41.41
2023-05-05T18:30:19.166Z,41.74
2023-05-05T18:32:45.525Z,41.75
2023-05-05T18:35:12.114Z,42.10
2023-05-05T18:37:39.387Z,42.32
2023-05-05T18:40:06.555Z,43.27
2023-05-05T18:42:32.868Z,43.26
2023-05-05T18:44:59.173Z,42.95
2023-05-05T18:47:26.214Z,42.71
2023-05-05T18:49:52.547Z,42.15
2023-05-05T18:52:18.843Z,42.29
2023-05-05T18:54:45.233Z,42.13
2023-05-05T18:57:11.502Z,42.33
2023-05-05T18:59:37.796Z,41.64
2023-05-05T19:02:04.154Z,42.35
2023-05-05T19:04:32.078Z,42.66
2023-05-05T19:06:58.726Z,42.79
2023-05-05T19:09:25.029Z,42.04
2023-05-05T19:11:51.443Z,41.50
2023-05-05T19:14:17.761Z,42.02
2023-05-05T19:16:44.143Z,41.77
2023-05-05T19:19:13.268Z,41.25
2023-05-05T19:21:39.691Z,40.99
2023-05-05T19:24:09.107Z,41.37
2023-05-05T19:26:35.677Z,42.55
2023-05-05T19:29:02.069Z,42.66
2023-05-05T19:31:30.534Z,42.73
2023-05-05T19:34:00.339Z,43.67
2023-05-05T19:36:27.619Z,44.05
2023-05-05T19:38:53.976Z,43.73
2023-05-05T19:41:20.802Z,43.75
2023-05-05T19:43:47.160Z,44.34
2023-05-05T19:46:14.030Z,45.23
2023-05-05T19:48:40.684Z,45.13
2023-05-05T19:51:07.000Z,44.55
2023-05-05T19:53:33.294Z,44.46
2023-05-05T19:55:59.614Z,44.08
2023-05-05T19:58:25.943Z,44.25
2023-05-05T20:00:52.281Z,44.38
2023-05-05T20:03:18.669Z,43.98
2023-05-05T20:05:45.046Z,43.88
2023-05-05T20:08:11.346Z,43.71
2023-05-05T20:10:37.646Z,43.93
2023-05-05T20:13:04.029Z,45.31
2023-05-05T20:15:32.007Z,44.61
2023-05-05T20:17:59.467Z,45.16
2023-05-05T20:20:25.781Z,44.90
2023-05-05T20:22:52.916Z,44.68
2023-05-05T20:25:19.296Z,44.53
2023-05-05T20:27:45.746Z,44.93
2023-05-05T20:30:12.375Z,44.92
2023-05-05T20:32:38.868Z,44.66
2023-05-05T20:35:06.072Z,43.77
2023-05-05T20:37:32.443Z,43.58
2023-05-05T20:39:58.759Z,43.74
2023-05-05T20:42:27.493Z,44.30
2023-05-05T20:44:53.777Z,43.94
2023-05-05T20:47:20.074Z,44.72
2023-05-05T20:49:46.378Z,45.32
2023-05-05T20:52:12.723Z,45.56
2023-05-05T20:54:39.115Z,46.14
2023-05-05T20:57:06.811Z,46.25
2023-05-05T20:59:33.131Z,46.27
2023-05-05T21:01:59.442Z,46.66
2023-05-05T21:04:25.893Z,47.00
2023-05-05T21:06:52.181Z,47.01
2023-05-05T21:09:19.607Z,47.16
2023-05-05T21:11:46.353Z,46.95
2023-05-05T21:14:12.745Z,46.61
2023-05-05T21:16:39.177Z,46.40
2023-05-05T21:19:05.690Z,46.75
2023-05-05T21:21:32.056Z,46.47
2023-05-05T21:23:58.436Z,47.07
2023-05-05T21:26:24.955Z,46.50
2023-05-05T21:28:51.721Z,46.28
2023-05-05T21:31:22.181Z,45.90
2023-05-05T21:33:54.200Z,46.39
2023-05-05T21:36:21.197Z,47.05
2023-05-05T21:38:47.573Z,46.58
2023-05-05T21:41:13.889Z,46.80
2023-05-05T21:43:40.215Z,47.55
2023-05-05T21:46:06.502Z,47.44
2023-05-05T21:48:32.912Z,47.72
2023-05-05T21:50:59.260Z,48.08
2023-05-05T21:53:25.569Z,48.07
2023-05-05T21:55:51.945Z,48.49
2023-05-05T21:58:18.236Z,48.10
2023-05-05T22:00:44.978Z,48.20
2023-05-05T22:03:11.422Z,48.38
2023-05-05T22:05:37.801Z,47.89
2023-05-05T22:08:04.150Z,48.57
2023-05-05T22:10:30.432Z,48.19
2023-05-05T22:12:57.864Z,48.19
2023-05-05T22:15:27.681Z,47.88
2023-05-05T22:17:56.406Z,48.00
2023-05-05T22:20:22.787Z,48.11
2023-05-05T22:22:49.081Z,48.82
2023-05-05T22:25:15.557Z,48.91
2023-05-05T22:27:41.931Z,48.58
2023-05-05T22:30:08.809Z,47.99
2023-05-05T22:32:35.217Z,48.48
2023-05-05T22:35:01.585Z,48.49
2023-05-05T22:37:28.046Z,48.19
2023-05-05T22:39:54.386Z,48.03
2023-05-05T22:42:20.856Z,48.17
2023-05-05T22:44:47.172Z,48.48
2023-05-05T22:47:13.555Z,49.56
2023-05-05T22:49:39.908Z,49.47
2023-05-05T22:52:06.244Z,48.70
2023-05-05T22:54:32.566Z,48.35
2023-05-05T22:56:58.960Z,47.52
2023-05-05T22:59:25.288Z,47.09
2023-05-05T23:01:51.576Z,47.72
2023-05-05T23:04:17.919Z,47.64
2023-05-05T23:06:44.813Z,47.78
2023-05-05T23:09:11.111Z,48.31
2023-05-05T23:11:37.411Z,48.17
2023-05-05T23:14:03.775Z,48.01
2023-05-05T23:16:30.120Z,47.93
2023-05-05T23:18:56.436Z,48.05
2023-05-05T23:21:22.735Z,48.36
2023-05-05T23:23:49.359Z,48.67
2023-05-05T23:26:15.673Z,48.97
2023-05-05T23:28:41.981Z,48.84
2023-05-05T23:31:08.541Z,48.45
2023-05-05T23:33:34.882Z,48.31
2023-05-05T23:36:01.155Z,48.71
2023-05-05T23:38:27.522Z,48.72
2023-05-05T23:40:53.804Z,48.48
2023-05-05T23:43:20.222Z,49.12
2023-05-05T23:45:46.505Z,49.44
2023-05-05T23:48:12.857Z,49.07
2023-05-05T23:50:39.386Z,49.40
2023-05-05T23:53:05.658Z,49.50
2023-05-05T23:55:31.950Z,48.94
2023-05-05T23:57:58.266Z,49.02
